sensor_id;sensor_type;location;lat;lon;timestamp;P1;durP1;ratioP1;P2;durP2;ratioP2
56427;SDS011;42331;53.578;9.760;2023-04-12T00:01:05;17.05;;;5.40;;
56427;SDS011;42331;53.578;9.760;2023-04-12T00:03:36;14.02;;;4.60;;
56427;SDS011;42331;53.578;9.760;2023-04-12T00:06:08;13.95;;;4.47;;
56427;SDS011;42331;53.578;9.760;2023-04-12T00:08:40;15.82;;;4.72;;
56427;SDS011;42331;53.578;9.760;2023-04-12T00:11:11;16.00;;;4.78;;
56427;SDS011;42331;53.578;9.760;2023-04-12T00:13:42;11.43;;;3.15;;
56427;SDS011;42331;53.578;9.760;2023-04-12T00:16:13;13.90;;;4.53;;
56427;SDS011;42331;53.578;9.760;2023-04-12T00:18:44;14.40;;;4.03;;
56427;SDS011;42331;53.578;9.760;2023-04-12T00:21:15;11.27;;;4.40;;
56427;SDS011;42331;53.578;9.760;2023-04-12T00:23:48;10.95;;;4.28;;
56427;SDS011;42331;53.578;9.760;2023-04-12T00:26:19;8.88;;;3.70;;
56427;SDS011;42331;53.578;9.760;2023-04-12T00:28:50;14.35;;;3.75;;
56427;SDS011;42331;53.578;9.760;2023-04-12T00:31:21;10.93;;;2.42;;
56427;SDS011;42331;53.578;9.760;2023-04-12T00:33:52;8.73;;;3.50;;
56427;SDS011;42331;53.578;9.760;2023-04-12T00:36:23;7.27;;;3.10;;
56427;SDS011;42331;53.578;9.760;2023-04-12T00:38:53;9.43;;;3.20;;
56427;SDS011;42331;53.578;9.760;2023-04-12T00:41:25;11.50;;;3.22;;
56427;SDS011;42331;53.578;9.760;2023-04-12T00:43:56;12.90;;;3.08;;
56427;SDS011;42331;53.578;9.760;2023-04-12T00:46:26;16.77;;;3.92;;
56427;SDS011;42331;53.578;9.760;2023-04-12T00:48:58;9.90;;;2.60;;
56427;SDS011;42331;53.578;9.760;2023-04-12T00:51:30;9.53;;;2.70;;
56427;SDS011;42331;53.578;9.760;2023-04-12T00:54:02;10.30;;;3.42;;
56427;SDS011;42331;53.578;9.760;2023-04-12T00:56:33;11.52;;;3.03;;
56427;SDS011;42331;53.578;9.760;2023-04-12T00:59:04;7.45;;;2.33;;
56427;SDS011;42331;53.578;9.760;2023-04-12T01:01:35;14.60;;;2.47;;
56427;SDS011;42331;53.578;9.760;2023-04-12T01:04:07;11.35;;;2.35;;
56427;SDS011;42331;53.578;9.760;2023-04-12T01:12:43;7.15;;;1.92;;
56427;SDS011;42331;53.578;9.760;2023-04-12T01:15:28;10.40;;;2.37;;
56427;SDS011;42331;53.578;9.760;2023-04-12T01:18:04;7.25;;;2.03;;
56427;SDS011;42331;53.578;9.760;2023-04-12T01:21:22;8.23;;;2.08;;
56427;SDS011;42331;53.578;9.760;2023-04-12T01:29:12;8.57;;;2.17;;
56427;SDS011;42331;53.578;9.760;2023-04-12T01:32:06;9.00;;;2.00;;
56427;SDS011;42331;53.578;9.760;2023-04-12T01:34:37;10.75;;;2.10;;
56427;SDS011;42331;53.578;9.760;2023-04-12T01:37:09;7.88;;;1.85;;
56427;SDS011;42331;53.578;9.760;2023-04-12T01:39:41;6.03;;;1.70;;
56427;SDS011;42331;53.578;9.760;2023-04-12T01:42:17;9.60;;;2.20;;
56427;SDS011;42331;53.578;9.760;2023-04-12T01:44:49;10.52;;;2.08;;
56427;SDS011;42331;53.578;9.760;2023-04-12T01:47:20;11.20;;;2.20;;
56427;SDS011;42331;53.578;9.760;2023-04-12T01:49:58;4.63;;;1.73;;
56427;SDS011;42331;53.578;9.760;2023-04-12T01:52:35;11.85;;;2.47;;
56427;SDS011;42331;53.578;9.760;2023-04-12T01:55:10;9.35;;;2.22;;
56427;SDS011;42331;53.578;9.760;2023-04-12T01:57:42;9.88;;;2.30;;
56427;SDS011;42331;53.578;9.760;2023-04-12T02:00:16;7.88;;;2.20;;
56427;SDS011;42331;53.578;9.760;2023-04-12T02:02:48;8.05;;;2.03;;
56427;SDS011;42331;53.578;9.760;2023-04-12T02:05:19;8.13;;;2.17;;
56427;SDS011;42331;53.578;9.760;2023-04-12T02:07:51;6.38;;;1.90;;
56427;SDS011;42331;53.578;9.760;2023-04-12T02:10:31;8.88;;;2.40;;
56427;SDS011;42331;53.578;9.760;2023-04-12T02:13:02;7.82;;;2.28;;
56427;SDS011;42331;53.578;9.760;2023-04-12T02:15:33;7.68;;;2.10;;
56427;SDS011;42331;53.578;9.760;2023-04-12T02:18:04;9.27;;;2.63;;
56427;SDS011;42331;53.578;9.760;2023-04-12T02:20:34;7.20;;;2.50;;
56427;SDS011;42331;53.578;9.760;2023-04-12T02:23:05;7.93;;;2.20;;
56427;SDS011;42331;53.578;9.760;2023-04-12T02:25:36;7.55;;;1.42;;
56427;SDS011;42331;53.578;9.760;2023-04-12T02:28:07;8.35;;;2.08;;
56427;SDS011;42331;53.578;9.760;2023-04-12T02:30:38;4.57;;;1.45;;
56427;SDS011;42331;53.578;9.760;2023-04-12T02:33:10;8.18;;;2.20;;
56427;SDS011;42331;53.578;9.760;2023-04-12T02:35:42;7.90;;;2.35;;
56427;SDS011;42331;53.578;9.760;2023-04-12T02:38:13;8.80;;;2.22;;
56427;SDS011;42331;53.578;9.760;2023-04-12T02:40:43;6.27;;;1.60;;
56427;SDS011;42331;53.578;9.760;2023-04-12T02:43:14;5.03;;;2.00;;
56427;SDS011;42331;53.578;9.760;2023-04-12T02:45:45;6.93;;;1.97;;
56427;SDS011;42331;53.578;9.760;2023-04-12T02:48:16;9.25;;;2.17;;
56427;SDS011;42331;53.578;9.760;2023-04-12T02:50:47;5.53;;;1.93;;
56427;SDS011;42331;53.578;9.760;2023-04-12T02:53:18;9.97;;;2.17;;
56427;SDS011;42331;53.578;9.760;2023-04-12T02:55:48;6.53;;;1.80;;
56427;SDS011;42331;53.578;9.760;2023-04-12T02:58:19;4.63;;;1.53;;
56427;SDS011;42331;53.578;9.760;2023-04-12T03:00:50;6.05;;;2.00;;
56427;SDS011;42331;53.578;9.760;2023-04-12T03:03:22;7.78;;;1.75;;
56427;SDS011;42331;53.578;9.760;2023-04-12T03:05:53;5.95;;;1.60;;
56427;SDS011;42331;53.578;9.760;2023-04-12T03:08:24;8.85;;;1.90;;
56427;SDS011;42331;53.578;9.760;2023-04-12T03:10:55;5.53;;;1.70;;
56427;SDS011;42331;53.578;9.760;2023-04-12T03:13:26;7.45;;;1.85;;
56427;SDS011;42331;53.578;9.760;2023-04-12T03:15:57;5.53;;;1.40;;
56427;SDS011;42331;53.578;9.760;2023-04-12T03:18:28;6.45;;;1.50;;
56427;SDS011;42331;53.578;9.760;2023-04-12T03:20:59;5.45;;;1.50;;
56427;SDS011;42331;53.578;9.760;2023-04-12T03:26:02;5.32;;;1.30;;
56427;SDS011;42331;53.578;9.760;2023-04-12T03:28:32;8.85;;;1.80;;
56427;SDS011;42331;53.578;9.760;2023-04-12T03:31:03;4.87;;;1.50;;
56427;SDS011;42331;53.578;9.760;2023-04-12T03:33:34;4.15;;;1.48;;
56427;SDS011;42331;53.578;9.760;2023-04-12T03:36:05;5.38;;;1.65;;
56427;SDS011;42331;53.578;9.760;2023-04-12T03:38:36;6.85;;;1.60;;
56427;SDS011;42331;53.578;9.760;2023-04-12T03:41:07;4.40;;;1.60;;
56427;SDS011;42331;53.578;9.760;2023-04-12T03:43:38;5.83;;;1.80;;
56427;SDS011;42331;53.578;9.760;2023-04-12T03:46:09;3.40;;;1.40;;
56427;SDS011;42331;53.578;9.760;2023-04-12T03:48:40;5.13;;;1.58;;
56427;SDS011;42331;53.578;9.760;2023-04-12T03:51:11;10.50;;;2.17;;
56427;SDS011;42331;53.578;9.760;2023-04-12T03:53:42;3.78;;;1.58;;
56427;SDS011;42331;53.578;9.760;2023-04-12T03:56:13;7.28;;;2.03;;
56427;SDS011;42331;53.578;9.760;2023-04-12T03:58:43;10.23;;;2.03;;
56427;SDS011;42331;53.578;9.760;2023-04-12T04:01:14;8.32;;;2.15;;
56427;SDS011;42331;53.578;9.760;2023-04-12T04:03:46;6.93;;;1.50;;
56427;SDS011;42331;53.578;9.760;2023-04-12T04:06:17;8.32;;;1.80;;
56427;SDS011;42331;53.578;9.760;2023-04-12T04:08:48;9.53;;;1.90;;
56427;SDS011;42331;53.578;9.760;2023-04-12T04:11:19;9.05;;;2.00;;
56427;SDS011;42331;53.578;9.760;2023-04-12T04:13:50;3.07;;;1.20;;
56427;SDS011;42331;53.578;9.760;2023-04-12T04:16:21;7.27;;;2.23;;
56427;SDS011;42331;53.578;9.760;2023-04-12T04:18:51;8.13;;;2.10;;
56427;SDS011;42331;53.578;9.760;2023-04-12T04:21:22;7.57;;;1.67;;
56427;SDS011;42331;53.578;9.760;2023-04-12T04:23:53;6.47;;;2.30;;
56427;SDS011;42331;53.578;9.760;2023-04-12T04:26:23;7.40;;;1.90;;
56427;SDS011;42331;53.578;9.760;2023-04-12T04:29:02;6.57;;;2.00;;
56427;SDS011;42331;53.578;9.760;2023-04-12T04:31:33;11.98;;;2.30;;
56427;SDS011;42331;53.578;9.760;2023-04-12T04:34:05;7.45;;;2.35;;
56427;SDS011;42331;53.578;9.760;2023-04-12T04:36:36;9.85;;;2.05;;
56427;SDS011;42331;53.578;9.760;2023-04-12T04:39:07;9.10;;;2.30;;
56427;SDS011;42331;53.578;9.760;2023-04-12T04:41:38;8.13;;;2.25;;
56427;SDS011;42331;53.578;9.760;2023-04-12T04:46:42;7.38;;;2.40;;
56427;SDS011;42331;53.578;9.760;2023-04-12T04:49:13;7.30;;;2.53;;
56427;SDS011;42331;53.578;9.760;2023-04-12T04:51:43;5.47;;;1.85;;
56427;SDS011;42331;53.578;9.760;2023-04-12T04:54:14;10.88;;;2.70;;
56427;SDS011;42331;53.578;9.760;2023-04-12T04:56:45;10.23;;;2.37;;
56427;SDS011;42331;53.578;9.760;2023-04-12T04:59:16;10.32;;;2.45;;
56427;SDS011;42331;53.578;9.760;2023-04-12T05:01:47;4.50;;;1.97;;
56427;SDS011;42331;53.578;9.760;2023-04-12T05:04:17;9.35;;;2.90;;
56427;SDS011;42331;53.578;9.760;2023-04-12T05:06:57;5.05;;;2.22;;
56427;SDS011;42331;53.578;9.760;2023-04-12T05:09:41;4.15;;;1.95;;
56427;SDS011;42331;53.578;9.760;2023-04-12T05:12:52;6.95;;;2.38;;
56427;SDS011;42331;53.578;9.760;2023-04-12T05:15:22;5.15;;;2.10;;
56427;SDS011;42331;53.578;9.760;2023-04-12T05:17:53;9.10;;;2.92;;
56427;SDS011;42331;53.578;9.760;2023-04-12T05:20:24;5.97;;;1.98;;
56427;SDS011;42331;53.578;9.760;2023-04-12T05:22:55;7.15;;;2.17;;
56427;SDS011;42331;53.578;9.760;2023-04-12T05:25:26;5.75;;;2.00;;
56427;SDS011;42331;53.578;9.760;2023-04-12T05:27:56;9.98;;;2.78;;
56427;SDS011;42331;53.578;9.760;2023-04-12T05:30:28;8.52;;;2.55;;
56427;SDS011;42331;53.578;9.760;2023-04-12T05:32:58;9.23;;;2.07;;
56427;SDS011;42331;53.578;9.760;2023-04-12T05:35:30;7.90;;;2.45;;
56427;SDS011;42331;53.578;9.760;2023-04-12T05:38:00;7.25;;;2.53;;
56427;SDS011;42331;53.578;9.760;2023-04-12T05:40:31;8.80;;;2.10;;
56427;SDS011;42331;53.578;9.760;2023-04-12T05:43:02;7.73;;;2.20;;
56427;SDS011;42331;53.578;9.760;2023-04-12T05:45:33;5.95;;;1.95;;
56427;SDS011;42331;53.578;9.760;2023-04-12T05:48:03;3.67;;;1.80;;
56427;SDS011;42331;53.578;9.760;2023-04-12T05:50:35;7.15;;;1.95;;
56427;SDS011;42331;53.578;9.760;2023-04-12T05:53:05;8.55;;;2.15;;
56427;SDS011;42331;53.578;9.760;2023-04-12T05:55:36;8.82;;;2.15;;
56427;SDS011;42331;53.578;9.760;2023-04-12T05:58:07;4.78;;;1.70;;
56427;SDS011;42331;53.578;9.760;2023-04-12T06:00:38;6.68;;;2.00;;
56427;SDS011;42331;53.578;9.760;2023-04-12T06:03:12;6.03;;;2.00;;
56427;SDS011;42331;53.578;9.760;2023-04-12T06:05:42;6.50;;;1.77;;
56427;SDS011;42331;53.578;9.760;2023-04-12T06:08:13;8.15;;;2.10;;
56427;SDS011;42331;53.578;9.760;2023-04-12T06:10:44;10.05;;;2.00;;
56427;SDS011;42331;53.578;9.760;2023-04-12T06:13:14;7.30;;;2.05;;
56427;SDS011;42331;53.578;9.760;2023-04-12T06:15:45;6.47;;;2.00;;
56427;SDS011;42331;53.578;9.760;2023-04-12T06:18:16;6.90;;;1.80;;
56427;SDS011;42331;53.578;9.760;2023-04-12T06:20:47;5.97;;;1.80;;
56427;SDS011;42331;53.578;9.760;2023-04-12T06:23:17;6.93;;;2.33;;
56427;SDS011;42331;53.578;9.760;2023-04-12T06:25:48;5.25;;;1.55;;
56427;SDS011;42331;53.578;9.760;2023-04-12T06:28:19;6.50;;;2.28;;
56427;SDS011;42331;53.578;9.760;2023-04-12T06:30:50;8.75;;;2.17;;
56427;SDS011;42331;53.578;9.760;2023-04-12T06:33:20;6.10;;;2.00;;
56427;SDS011;42331;53.578;9.760;2023-04-12T06:35:52;3.90;;;1.90;;
56427;SDS011;42331;53.578;9.760;2023-04-12T06:38:22;4.43;;;1.63;;
56427;SDS011;42331;53.578;9.760;2023-04-12T06:40:53;5.38;;;1.50;;
56427;SDS011;42331;53.578;9.760;2023-04-12T06:43:24;5.22;;;2.10;;
56427;SDS011;42331;53.578;9.760;2023-04-12T06:45:55;5.65;;;1.88;;
56427;SDS011;42331;53.578;9.760;2023-04-12T06:48:26;12.68;;;2.00;;
56427;SDS011;42331;53.578;9.760;2023-04-12T06:50:56;8.20;;;2.20;;
56427;SDS011;42331;53.578;9.760;2023-04-12T06:53:27;7.80;;;2.25;;
56427;SDS011;42331;53.578;9.760;2023-04-12T06:56:03;9.88;;;2.08;;
56427;SDS011;42331;53.578;9.760;2023-04-12T06:58:34;4.78;;;1.67;;
56427;SDS011;42331;53.578;9.760;2023-04-12T07:01:05;5.65;;;1.95;;
56427;SDS011;42331;53.578;9.760;2023-04-12T07:03:37;6.80;;;1.73;;
56427;SDS011;42331;53.578;9.760;2023-04-12T07:06:08;7.57;;;1.85;;
56427;SDS011;42331;53.578;9.760;2023-04-12T07:08:39;5.25;;;1.83;;
56427;SDS011;42331;53.578;9.760;2023-04-12T07:11:09;4.65;;;1.80;;
56427;SDS011;42331;53.578;9.760;2023-04-12T07:13:40;3.13;;;0.98;;
56427;SDS011;42331;53.578;9.760;2023-04-12T07:16:11;5.97;;;2.08;;
56427;SDS011;42331;53.578;9.760;2023-04-12T07:18:41;4.95;;;1.45;;
56427;SDS011;42331;53.578;9.760;2023-04-12T07:21:12;5.25;;;1.80;;
56427;SDS011;42331;53.578;9.760;2023-04-12T07:23:43;3.40;;;1.20;;
56427;SDS011;42331;53.578;9.760;2023-04-12T07:26:15;3.90;;;1.50;;
56427;SDS011;42331;53.578;9.760;2023-04-12T07:28:47;8.18;;;1.70;;
56427;SDS011;42331;53.578;9.760;2023-04-12T07:31:18;7.80;;;1.85;;
56427;SDS011;42331;53.578;9.760;2023-04-12T07:33:49;5.75;;;1.75;;
56427;SDS011;42331;53.578;9.760;2023-04-12T07:36:20;4.63;;;1.65;;
56427;SDS011;42331;53.578;9.760;2023-04-12T07:38:51;5.40;;;1.70;;
56427;SDS011;42331;53.578;9.760;2023-04-12T07:41:24;4.93;;;1.48;;
56427;SDS011;42331;53.578;9.760;2023-04-12T07:43:55;8.68;;;1.90;;
56427;SDS011;42331;53.578;9.760;2023-04-12T07:46:25;4.85;;;1.75;;
56427;SDS011;42331;53.578;9.760;2023-04-12T07:48:56;8.82;;;1.80;;
56427;SDS011;42331;53.578;9.760;2023-04-12T07:51:26;5.93;;;1.30;;
56427;SDS011;42331;53.578;9.760;2023-04-12T07:53:57;5.65;;;1.75;;
56427;SDS011;42331;53.578;9.760;2023-04-12T07:56:28;8.65;;;1.40;;
56427;SDS011;42331;53.578;9.760;2023-04-12T07:58:59;5.20;;;1.42;;
56427;SDS011;42331;53.578;9.760;2023-04-12T08:01:29;5.40;;;1.25;;
56427;SDS011;42331;53.578;9.760;2023-04-12T08:04:00;7.28;;;1.92;;
56427;SDS011;42331;53.578;9.760;2023-04-12T08:06:31;4.25;;;1.20;;
56427;SDS011;42331;53.578;9.760;2023-04-12T08:09:02;4.57;;;1.30;;
56427;SDS011;42331;53.578;9.760;2023-04-12T08:11:33;9.40;;;1.65;;
56427;SDS011;42331;53.578;9.760;2023-04-12T08:14:04;6.75;;;1.30;;
56427;SDS011;42331;53.578;9.760;2023-04-12T08:16:35;5.25;;;1.60;;
56427;SDS011;42331;53.578;9.760;2023-04-12T08:19:06;5.25;;;1.75;;
56427;SDS011;42331;53.578;9.760;2023-04-12T08:21:37;4.55;;;1.30;;
56427;SDS011;42331;53.578;9.760;2023-04-12T08:24:07;6.85;;;1.30;;
56427;SDS011;42331;53.578;9.760;2023-04-12T08:26:38;4.28;;;0.80;;
56427;SDS011;42331;53.578;9.760;2023-04-12T08:29:09;4.05;;;0.93;;
56427;SDS011;42331;53.578;9.760;2023-04-12T08:31:39;4.35;;;1.10;;
56427;SDS011;42331;53.578;9.760;2023-04-12T08:34:10;6.40;;;1.23;;
56427;SDS011;42331;53.578;9.760;2023-04-12T08:36:41;6.05;;;1.50;;
56427;SDS011;42331;53.578;9.760;2023-04-12T08:39:12;6.20;;;1.40;;
56427;SDS011;42331;53.578;9.760;2023-04-12T08:41:42;8.70;;;1.38;;
56427;SDS011;42331;53.578;9.760;2023-04-12T08:44:14;3.43;;;1.10;;
56427;SDS011;42331;53.578;9.760;2023-04-12T08:46:45;5.10;;;1.13;;
56427;SDS011;42331;53.578;9.760;2023-04-12T08:49:17;6.20;;;1.23;;
56427;SDS011;42331;53.578;9.760;2023-04-12T08:51:50;10.55;;;1.35;;
56427;SDS011;42331;53.578;9.760;2023-04-12T08:54:23;6.82;;;1.55;;
56427;SDS011;42331;53.578;9.760;2023-04-12T08:56:55;7.53;;;1.33;;
56427;SDS011;42331;53.578;9.760;2023-04-12T08:59:28;4.90;;;1.23;;
56427;SDS011;42331;53.578;9.760;2023-04-12T09:02:00;4.15;;;1.00;;
56427;SDS011;42331;53.578;9.760;2023-04-12T09:04:31;4.63;;;0.95;;
56427;SDS011;42331;53.578;9.760;2023-04-12T09:07:01;3.58;;;1.30;;
56427;SDS011;42331;53.578;9.760;2023-04-12T09:09:41;6.57;;;1.73;;
56427;SDS011;42331;53.578;9.760;2023-04-12T09:12:16;4.03;;;1.08;;
56427;SDS011;42331;53.578;9.760;2023-04-12T09:15:05;3.90;;;0.85;;
56427;SDS011;42331;53.578;9.760;2023-04-12T09:17:38;6.97;;;1.65;;
56427;SDS011;42331;53.578;9.760;2023-04-12T09:22:46;7.18;;;1.13;;
56427;SDS011;42331;53.578;9.760;2023-04-12T09:25:17;4.43;;;1.20;;
56427;SDS011;42331;53.578;9.760;2023-04-12T09:28:01;7.68;;;1.30;;
56427;SDS011;42331;53.578;9.760;2023-04-12T09:30:39;4.50;;;1.33;;
56427;SDS011;42331;53.578;9.760;2023-04-12T09:33:13;5.70;;;1.20;;
56427;SDS011;42331;53.578;9.760;2023-04-12T09:35:45;5.90;;;1.17;;
56427;SDS011;42331;53.578;9.760;2023-04-12T09:38:16;8.17;;;1.57;;
56427;SDS011;42331;53.578;9.760;2023-04-12T09:40:47;3.92;;;1.00;;
56427;SDS011;42331;53.578;9.760;2023-04-12T09:46:12;4.82;;;1.15;;
56427;SDS011;42331;53.578;9.760;2023-04-12T09:48:50;5.10;;;1.00;;
56427;SDS011;42331;53.578;9.760;2023-04-12T09:51:26;2.40;;;0.88;;
56427;SDS011;42331;53.578;9.760;2023-04-12T09:54:01;6.47;;;1.00;;
56427;SDS011;42331;53.578;9.760;2023-04-12T09:56:34;5.65;;;1.10;;
56427;SDS011;42331;53.578;9.760;2023-04-12T09:59:05;4.22;;;1.10;;
56427;SDS011;42331;53.578;9.760;2023-04-12T10:01:38;8.23;;;1.40;;
56427;SDS011;42331;53.578;9.760;2023-04-12T10:04:10;4.40;;;1.25;;
56427;SDS011;42331;53.578;9.760;2023-04-12T10:06:40;4.97;;;1.40;;
56427;SDS011;42331;53.578;9.760;2023-04-12T10:09:12;6.60;;;1.15;;
56427;SDS011;42331;53.578;9.760;2023-04-12T10:11:43;6.07;;;1.27;;
56427;SDS011;42331;53.578;9.760;2023-04-12T10:14:15;8.20;;;1.17;;
56427;SDS011;42331;53.578;9.760;2023-04-12T10:16:47;6.53;;;1.20;;
56427;SDS011;42331;53.578;9.760;2023-04-12T10:19:18;7.25;;;1.15;;
56427;SDS011;42331;53.578;9.760;2023-04-12T10:21:50;5.95;;;1.13;;
56427;SDS011;42331;53.578;9.760;2023-04-12T10:24:21;5.35;;;1.30;;
56427;SDS011;42331;53.578;9.760;2023-04-12T10:26:56;5.35;;;1.50;;
56427;SDS011;42331;53.578;9.760;2023-04-12T10:29:32;3.33;;;0.90;;
56427;SDS011;42331;53.578;9.760;2023-04-12T10:32:38;4.38;;;1.15;;
56427;SDS011;42331;53.578;9.760;2023-04-12T10:35:02;5.32;;;1.40;;
56427;SDS011;42331;53.578;9.760;2023-04-12T10:40:28;8.18;;;1.73;;
56427;SDS011;42331;53.578;9.760;2023-04-12T10:43:23;5.47;;;1.63;;
56427;SDS011;42331;53.578;9.760;2023-04-12T10:45:53;6.30;;;1.33;;
56427;SDS011;42331;53.578;9.760;2023-04-12T10:51:13;5.88;;;1.60;;
56427;SDS011;42331;53.578;9.760;2023-04-12T10:56:38;6.88;;;1.70;;
56427;SDS011;42331;53.578;9.760;2023-04-12T10:59:15;7.32;;;1.38;;
56427;SDS011;42331;53.578;9.760;2023-04-12T11:07:39;3.92;;;1.70;;
56427;SDS011;42331;53.578;9.760;2023-04-12T11:10:14;6.82;;;1.67;;
56427;SDS011;42331;53.578;9.760;2023-04-12T11:12:48;6.03;;;2.08;;
56427;SDS011;42331;53.578;9.760;2023-04-12T11:15:19;13.27;;;2.20;;
56427;SDS011;42331;53.578;9.760;2023-04-12T11:17:58;5.50;;;1.88;;
56427;SDS011;42331;53.578;9.760;2023-04-12T11:20:30;6.45;;;1.73;;
56427;SDS011;42331;53.578;9.760;2023-04-12T11:23:02;7.30;;;1.77;;
56427;SDS011;42331;53.578;9.760;2023-04-12T11:25:34;8.30;;;1.75;;
56427;SDS011;42331;53.578;9.760;2023-04-12T11:28:06;9.43;;;1.90;;
56427;SDS011;42331;53.578;9.760;2023-04-12T11:30:36;6.70;;;2.78;;
56427;SDS011;42331;53.578;9.760;2023-04-12T11:33:39;5.07;;;2.00;;
56427;SDS011;42331;53.578;9.760;2023-04-12T11:36:10;7.22;;;2.60;;
56427;SDS011;42331;53.578;9.760;2023-04-12T11:38:42;5.22;;;1.83;;
56427;SDS011;42331;53.578;9.760;2023-04-12T11:41:15;5.95;;;2.47;;
56427;SDS011;42331;53.578;9.760;2023-04-12T11:43:47;5.25;;;1.90;;
56427;SDS011;42331;53.578;9.760;2023-04-12T11:46:19;6.40;;;2.00;;
56427;SDS011;42331;53.578;9.760;2023-04-12T11:48:53;6.50;;;1.83;;
56427;SDS011;42331;53.578;9.760;2023-04-12T11:51:23;4.47;;;1.80;;
56427;SDS011;42331;53.578;9.760;2023-04-12T11:53:55;3.95;;;1.95;;
56427;SDS011;42331;53.578;9.760;2023-04-12T11:56:28;3.58;;;1.90;;
56427;SDS011;42331;53.578;9.760;2023-04-12T11:59:00;4.50;;;1.50;;
56427;SDS011;42331;53.578;9.760;2023-04-12T12:01:33;4.35;;;2.08;;
56427;SDS011;42331;53.578;9.760;2023-04-12T12:04:04;6.38;;;1.70;;
56427;SDS011;42331;53.578;9.760;2023-04-12T12:06:35;6.82;;;2.10;;
56427;SDS011;42331;53.578;9.760;2023-04-12T12:09:06;7.43;;;2.15;;
56427;SDS011;42331;53.578;9.760;2023-04-12T12:11:37;6.40;;;2.50;;
56427;SDS011;42331;53.578;9.760;2023-04-12T12:14:08;5.72;;;2.05;;
56427;SDS011;42331;53.578;9.760;2023-04-12T12:16:38;6.43;;;2.38;;
56427;SDS011;42331;53.578;9.760;2023-04-12T12:19:10;3.33;;;1.42;;
56427;SDS011;42331;53.578;9.760;2023-04-12T12:21:41;5.30;;;1.90;;
56427;SDS011;42331;53.578;9.760;2023-04-12T12:24:12;2.88;;;1.48;;
56427;SDS011;42331;53.578;9.760;2023-04-12T12:26:43;4.65;;;1.83;;
56427;SDS011;42331;53.578;9.760;2023-04-12T12:29:17;4.28;;;1.77;;
56427;SDS011;42331;53.578;9.760;2023-04-12T12:31:48;4.40;;;1.60;;
56427;SDS011;42331;53.578;9.760;2023-04-12T12:34:19;2.95;;;1.48;;
56427;SDS011;42331;53.578;9.760;2023-04-12T12:36:53;4.43;;;1.92;;
56427;SDS011;42331;53.578;9.760;2023-04-12T12:39:27;7.22;;;1.80;;
56427;SDS011;42331;53.578;9.760;2023-04-12T12:41:57;3.05;;;1.63;;
56427;SDS011;42331;53.578;9.760;2023-04-12T12:44:29;5.95;;;1.85;;
56427;SDS011;42331;53.578;9.760;2023-04-12T12:47:00;3.55;;;1.55;;
56427;SDS011;42331;53.578;9.760;2023-04-12T12:49:31;2.55;;;1.42;;
56427;SDS011;42331;53.578;9.760;2023-04-12T12:52:01;3.95;;;1.70;;
56427;SDS011;42331;53.578;9.760;2023-04-12T12:54:32;5.53;;;2.17;;
56427;SDS011;42331;53.578;9.760;2023-04-12T12:57:04;5.30;;;1.80;;
56427;SDS011;42331;53.578;9.760;2023-04-12T12:59:35;5.60;;;2.30;;
56427;SDS011;42331;53.578;9.760;2023-04-12T13:02:06;4.97;;;2.20;;
56427;SDS011;42331;53.578;9.760;2023-04-12T13:04:36;4.40;;;2.55;;
56427;SDS011;42331;53.578;9.760;2023-04-12T13:07:07;5.18;;;2.50;;
56427;SDS011;42331;53.578;9.760;2023-04-12T13:09:38;5.03;;;2.20;;
56427;SDS011;42331;53.578;9.760;2023-04-12T13:12:08;4.97;;;2.90;;
56427;SDS011;42331;53.578;9.760;2023-04-12T13:14:39;5.03;;;2.60;;
56427;SDS011;42331;53.578;9.760;2023-04-12T13:17:11;6.07;;;2.90;;
56427;SDS011;42331;53.578;9.760;2023-04-12T13:19:42;5.45;;;3.17;;
56427;SDS011;42331;53.578;9.760;2023-04-12T13:22:14;7.20;;;2.85;;
56427;SDS011;42331;53.578;9.760;2023-04-12T13:24:45;5.17;;;2.70;;
56427;SDS011;42331;53.578;9.760;2023-04-12T13:27:16;5.95;;;3.05;;
56427;SDS011;42331;53.578;9.760;2023-04-12T13:29:47;9.15;;;3.65;;
56427;SDS011;42331;53.578;9.760;2023-04-12T13:32:17;6.90;;;2.83;;
56427;SDS011;42331;53.578;9.760;2023-04-12T13:34:48;5.47;;;2.63;;
56427;SDS011;42331;53.578;9.760;2023-04-12T13:37:19;6.38;;;2.72;;
56427;SDS011;42331;53.578;9.760;2023-04-12T13:39:50;5.78;;;2.90;;
56427;SDS011;42331;53.578;9.760;2023-04-12T13:42:21;7.68;;;3.10;;
56427;SDS011;42331;53.578;9.760;2023-04-12T13:44:52;8.35;;;3.53;;
56427;SDS011;42331;53.578;9.760;2023-04-12T13:47:24;6.22;;;3.42;;
56427;SDS011;42331;53.578;9.760;2023-04-12T13:49:56;5.53;;;3.05;;
56427;SDS011;42331;53.578;9.760;2023-04-12T13:52:26;10.02;;;3.45;;
56427;SDS011;42331;53.578;9.760;2023-04-12T13:54:57;7.10;;;3.28;;
56427;SDS011;42331;53.578;9.760;2023-04-12T13:57:28;10.33;;;3.30;;
56427;SDS011;42331;53.578;9.760;2023-04-12T13:59:59;6.25;;;3.22;;
56427;SDS011;42331;53.578;9.760;2023-04-12T14:02:29;6.65;;;2.92;;
56427;SDS011;42331;53.578;9.760;2023-04-12T14:05:00;6.03;;;3.90;;
56427;SDS011;42331;53.578;9.760;2023-04-12T14:07:31;9.13;;;3.42;;
56427;SDS011;42331;53.578;9.760;2023-04-12T14:10:03;8.27;;;3.33;;
56427;SDS011;42331;53.578;9.760;2023-04-12T14:12:34;5.75;;;2.70;;
56427;SDS011;42331;53.578;9.760;2023-04-12T14:15:05;5.68;;;2.67;;
56427;SDS011;42331;53.578;9.760;2023-04-12T14:17:36;6.22;;;2.60;;
56427;SDS011;42331;53.578;9.760;2023-04-12T14:20:07;5.10;;;2.30;;
56427;SDS011;42331;53.578;9.760;2023-04-12T14:22:41;7.03;;;2.83;;
56427;SDS011;42331;53.578;9.760;2023-04-12T14:25:12;6.28;;;2.70;;
56427;SDS011;42331;53.578;9.760;2023-04-12T14:27:43;9.73;;;2.83;;
56427;SDS011;42331;53.578;9.760;2023-04-12T14:30:14;7.60;;;2.45;;
56427;SDS011;42331;53.578;9.760;2023-04-12T14:32:45;5.53;;;2.40;;
56427;SDS011;42331;53.578;9.760;2023-04-12T14:35:16;4.75;;;2.40;;
56427;SDS011;42331;53.578;9.760;2023-04-12T14:37:47;4.68;;;2.58;;
56427;SDS011;42331;53.578;9.760;2023-04-12T14:40:18;7.75;;;2.63;;
56427;SDS011;42331;53.578;9.760;2023-04-12T14:42:48;5.93;;;2.95;;
56427;SDS011;42331;53.578;9.760;2023-04-12T14:45:19;5.72;;;2.58;;
56427;SDS011;42331;53.578;9.760;2023-04-12T14:47:50;6.30;;;2.95;;
56427;SDS011;42331;53.578;9.760;2023-04-12T14:50:20;5.88;;;2.40;;
56427;SDS011;42331;53.578;9.760;2023-04-12T14:52:51;3.50;;;2.55;;
56427;SDS011;42331;53.578;9.760;2023-04-12T14:55:23;6.00;;;2.65;;
56427;SDS011;42331;53.578;9.760;2023-04-12T14:57:55;4.35;;;2.45;;
56427;SDS011;42331;53.578;9.760;2023-04-12T15:00:26;6.13;;;2.65;;
56427;SDS011;42331;53.578;9.760;2023-04-12T15:03:01;4.10;;;2.05;;
56427;SDS011;42331;53.578;9.760;2023-04-12T15:05:32;7.65;;;2.50;;
56427;SDS011;42331;53.578;9.760;2023-04-12T15:08:06;4.72;;;2.70;;
56427;SDS011;42331;53.578;9.760;2023-04-12T15:10:37;7.43;;;2.78;;
56427;SDS011;42331;53.578;9.760;2023-04-12T15:13:08;4.35;;;2.00;;
56427;SDS011;42331;53.578;9.760;2023-04-12T15:15:39;4.10;;;2.35;;
56427;SDS011;42331;53.578;9.760;2023-04-12T15:18:10;4.57;;;2.20;;
56427;SDS011;42331;53.578;9.760;2023-04-12T15:20:41;3.10;;;1.45;;
56427;SDS011;42331;53.578;9.760;2023-04-12T15:23:12;4.97;;;2.60;;
56427;SDS011;42331;53.578;9.760;2023-04-12T15:25:43;3.40;;;1.70;;
56427;SDS011;42331;53.578;9.760;2023-04-12T15:28:13;6.50;;;2.00;;
56427;SDS011;42331;53.578;9.760;2023-04-12T15:30:44;3.70;;;2.07;;
56427;SDS011;42331;53.578;9.760;2023-04-12T15:33:15;4.45;;;1.90;;
56427;SDS011;42331;53.578;9.760;2023-04-12T15:35:47;5.50;;;2.45;;
56427;SDS011;42331;53.578;9.760;2023-04-12T15:38:18;3.15;;;1.90;;
56427;SDS011;42331;53.578;9.760;2023-04-12T15:40:55;4.03;;;1.90;;
56427;SDS011;42331;53.578;9.760;2023-04-12T15:43:29;5.80;;;1.83;;
56427;SDS011;42331;53.578;9.760;2023-04-12T15:46:00;3.13;;;1.70;;
56427;SDS011;42331;53.578;9.760;2023-04-12T15:48:31;2.92;;;1.75;;
56427;SDS011;42331;53.578;9.760;2023-04-12T15:51:02;4.72;;;1.90;;